sensor_id;sensor_type;location;lat;lon;timestamp;temperature;humidity
61000;SHT31;46879;45.658;11.814;2023-02-22T00:01:16;17.14;69.16
61000;SHT31;46879;45.658;11.814;2023-02-22T00:06:34;17.18;69.15
61000;SHT31;46879;45.658;11.814;2023-02-22T00:11:35;17.15;69.29
61000;SHT31;46879;45.658;11.814;2023-02-22T00:16:37;17.16;69.33
61000;SHT31;46879;45.658;11.814;2023-02-22T00:21:38;17.16;69.26
61000;SHT31;46879;45.658;11.814;2023-02-22T00:26:38;17.16;69.28
61000;SHT31;46879;45.658;11.814;2023-02-22T00:31:39;17.18;69.47
61000;SHT31;46879;45.658;11.814;2023-02-22T00:36:47;17.16;69.60
61000;SHT31;46879;45.658;11.814;2023-02-22T00:41:48;17.18;69.52
61000;SHT31;46879;45.658;11.814;2023-02-22T00:46:48;17.18;69.85
61000;SHT31;46879;45.658;11.814;2023-02-22T00:51:49;17.16;69.64
61000;SHT31;46879;45.658;11.814;2023-02-22T00:56:50;17.16;69.78
61000;SHT31;46879;45.658;11.814;2023-02-22T01:01:50;17.16;69.81
61000;SHT31;46879;45.658;11.814;2023-02-22T01:06:51;17.19;69.87
61000;SHT31;46879;45.658;11.814;2023-02-22T01:11:54;17.19;69.81
61000;SHT31;46879;45.658;11.814;2023-02-22T01:16:56;17.18;69.94
61000;SHT31;46879;45.658;11.814;2023-02-22T01:21:56;17.14;70.62
61000;SHT31;46879;45.658;11.814;2023-02-22T01:26:58;17.15;70.63
61000;SHT31;46879;45.658;11.814;2023-02-22T01:31:58;17.14;70.57
61000;SHT31;46879;45.658;11.814;2023-02-22T01:37:01;17.15;70.48
61000;SHT31;46879;45.658;11.814;2023-02-22T01:42:01;17.16;70.42
61000;SHT31;46879;45.658;11.814;2023-02-22T01:47:04;17.16;70.47
61000;SHT31;46879;45.658;11.814;2023-02-22T01:52:09;17.15;70.52
61000;SHT31;46879;45.658;11.814;2023-02-22T01:57:19;17.18;70.64
61000;SHT31;46879;45.658;11.814;2023-02-22T02:02:22;17.16;70.52
61000;SHT31;46879;45.658;11.814;2023-02-22T02:07:24;17.19;70.43
61000;SHT31;46879;45.658;11.814;2023-02-22T02:12:27;17.15;70.71
61000;SHT31;46879;45.658;11.814;2023-02-22T02:17:29;17.15;70.88
61000;SHT31;46879;45.658;11.814;2023-02-22T02:22:56;17.16;70.50
61000;SHT31;46879;45.658;11.814;2023-02-22T02:38:49;17.16;70.64
61000;SHT31;46879;45.658;11.814;2023-02-22T02:49:18;17.16;70.81
61000;SHT31;46879;45.658;11.814;2023-02-22T02:54:21;17.18;70.46
61000;SHT31;46879;45.658;11.814;2023-02-22T02:59:29;17.15;71.07
61000;SHT31;46879;45.658;11.814;2023-02-22T03:10:25;17.18;70.96
61000;SHT31;46879;45.658;11.814;2023-02-22T03:16:09;17.15;70.79
61000;SHT31;46879;45.658;11.814;2023-02-22T03:26:33;17.14;71.22
61000;SHT31;46879;45.658;11.814;2023-02-22T03:31:40;17.14;71.27
61000;SHT31;46879;45.658;11.814;2023-02-22T03:36:47;17.12;71.44
61000;SHT31;46879;45.658;11.814;2023-02-22T03:41:49;17.16;71.27
61000;SHT31;46879;45.658;11.814;2023-02-22T03:46:53;17.19;71.39
61000;SHT31;46879;45.658;11.814;2023-02-22T03:51:56;17.19;71.05
61000;SHT31;46879;45.658;11.814;2023-02-22T03:57:24;17.19;71.50
61000;SHT31;46879;45.658;11.814;2023-02-22T04:02:23;17.18;71.43
61000;SHT31;46879;45.658;11.814;2023-02-22T04:07:23;17.20;71.33
61000;SHT31;46879;45.658;11.814;2023-02-22T04:12:24;17.20;71.09
61000;SHT31;46879;45.658;11.814;2023-02-22T04:17:24;17.19;71.29
61000;SHT31;46879;45.658;11.814;2023-02-22T04:22:25;17.18;71.17
61000;SHT31;46879;45.658;11.814;2023-02-22T04:27:26;17.20;71.08
61000;SHT31;46879;45.658;11.814;2023-02-22T04:32:26;17.20;71.16
61000;SHT31;46879;45.658;11.814;2023-02-22T04:37:27;17.18;71.40
61000;SHT31;46879;45.658;11.814;2023-02-22T04:42:27;17.19;71.46
61000;SHT31;46879;45.658;11.814;2023-02-22T04:47:28;17.16;71.35
61000;SHT31;46879;45.658;11.814;2023-02-22T04:52:29;17.16;71.60
61000;SHT31;46879;45.658;11.814;2023-02-22T04:57:30;17.16;71.59
61000;SHT31;46879;45.658;11.814;2023-02-22T05:02:30;17.15;71.54
61000;SHT31;46879;45.658;11.814;2023-02-22T05:07:31;17.12;71.61
61000;SHT31;46879;45.658;11.814;2023-02-22T05:12:32;17.14;71.68
61000;SHT31;46879;45.658;11.814;2023-02-22T05:17:33;17.12;71.85
61000;SHT31;46879;45.658;11.814;2023-02-22T05:22:34;17.12;71.95
61000;SHT31;46879;45.658;11.814;2023-02-22T05:27:35;17.15;71.71
61000;SHT31;46879;45.658;11.814;2023-02-22T05:32:36;17.15;71.65
61000;SHT31;46879;45.658;11.814;2023-02-22T05:37:36;17.15;71.53
61000;SHT31;46879;45.658;11.814;2023-02-22T05:42:37;17.15;71.69
61000;SHT31;46879;45.658;11.814;2023-02-22T05:47:37;17.16;71.78
61000;SHT31;46879;45.658;11.814;2023-02-22T05:52:38;17.19;71.70
61000;SHT31;46879;45.658;11.814;2023-02-22T05:57:39;17.15;71.80
61000;SHT31;46879;45.658;11.814;2023-02-22T06:02:39;17.15;71.98
61000;SHT31;46879;45.658;11.814;2023-02-22T06:07:40;17.14;71.91
61000;SHT31;46879;45.658;11.814;2023-02-22T06:12:41;17.12;72.04
61000;SHT31;46879;45.658;11.814;2023-02-22T06:17:42;17.09;72.12
61000;SHT31;46879;45.658;11.814;2023-02-22T06:22:42;17.11;72.32
61000;SHT31;46879;45.658;11.814;2023-02-22T06:27:44;17.08;72.47
61000;SHT31;46879;45.658;11.814;2023-02-22T06:32:45;17.09;72.97
61000;SHT31;46879;45.658;11.814;2023-02-22T06:37:46;17.14;73.30
61000;SHT31;46879;45.658;11.814;2023-02-22T06:42:47;17.12;72.99
61000;SHT31;46879;45.658;11.814;2023-02-22T06:47:48;17.15;72.80
61000;SHT31;46879;45.658;11.814;2023-02-22T06:52:49;17.16;72.53
61000;SHT31;46879;45.658;11.814;2023-02-22T06:57:50;17.16;72.58
61000;SHT31;46879;45.658;11.814;2023-02-22T07:02:51;17.14;72.27
61000;SHT31;46879;45.658;11.814;2023-02-22T07:07:58;17.14;72.06
61000;SHT31;46879;45.658;11.814;2023-02-22T07:13:01;17.16;71.38
61000;SHT31;46879;45.658;11.814;2023-02-22T07:18:02;17.19;71.19
61000;SHT31;46879;45.658;11.814;2023-02-22T07:23:04;17.19;71.09
61000;SHT31;46879;45.658;11.814;2023-02-22T07:28:05;17.20;70.56
61000;SHT31;46879;45.658;11.814;2023-02-22T07:33:08;17.19;70.76
61000;SHT31;46879;45.658;11.814;2023-02-22T07:38:09;17.20;70.47
61000;SHT31;46879;45.658;11.814;2023-02-22T07:43:21;17.20;70.09
61000;SHT31;46879;45.658;11.814;2023-02-22T07:48:26;17.23;69.93
61000;SHT31;46879;45.658;11.814;2023-02-22T07:53:30;17.22;69.77
61000;SHT31;46879;45.658;11.814;2023-02-22T07:58:33;17.25;69.47
61000;SHT31;46879;45.658;11.814;2023-02-22T08:03:35;17.25;69.34
61000;SHT31;46879;45.658;11.814;2023-02-22T08:08:37;17.20;69.05
61000;SHT31;46879;45.658;11.814;2023-02-22T08:13:38;17.25;68.91
61000;SHT31;46879;45.658;11.814;2023-02-22T08:18:39;17.23;68.76
61000;SHT31;46879;45.658;11.814;2023-02-22T08:23:40;17.23;68.64
61000;SHT31;46879;45.658;11.814;2023-02-22T08:28:40;17.22;68.47
61000;SHT31;46879;45.658;11.814;2023-02-22T08:33:41;17.25;68.38
61000;SHT31;46879;45.658;11.814;2023-02-22T08:38:42;17.27;68.25
61000;SHT31;46879;45.658;11.814;2023-02-22T08:43:42;17.26;68.19
61000;SHT31;46879;45.658;11.814;2023-02-22T08:48:52;17.23;68.19
61000;SHT31;46879;45.658;11.814;2023-02-22T08:53:53;17.26;68.04
61000;SHT31;46879;45.658;11.814;2023-02-22T08:58:54;17.25;67.97
61000;SHT31;46879;45.658;11.814;2023-02-22T09:03:55;17.25;67.71
61000;SHT31;46879;45.658;11.814;2023-02-22T09:08:56;17.26;67.79
61000;SHT31;46879;45.658;11.814;2023-02-22T09:13:57;17.26;67.67
61000;SHT31;46879;45.658;11.814;2023-02-22T09:18:58;17.25;67.61
61000;SHT31;46879;45.658;11.814;2023-02-22T09:23:58;17.27;67.52
61000;SHT31;46879;45.658;11.814;2023-02-22T09:29:06;17.27;67.33
61000;SHT31;46879;45.658;11.814;2023-02-22T09:34:09;17.29;67.23
61000;SHT31;46879;45.658;11.814;2023-02-22T09:39:17;17.29;67.15
61000;SHT31;46879;45.658;11.814;2023-02-22T09:44:31;17.32;67.08
61000;SHT31;46879;45.658;11.814;2023-02-22T09:50:03;17.29;67.00
61000;SHT31;46879;45.658;11.814;2023-02-22T10:00:20;17.30;66.84
61000;SHT31;46879;45.658;11.814;2023-02-22T10:05:31;17.30;66.92
61000;SHT31;46879;45.658;11.814;2023-02-22T10:10:39;17.30;66.80
61000;SHT31;46879;45.658;11.814;2023-02-22T10:20:57;17.32;66.86
61000;SHT31;46879;45.658;11.814;2023-02-22T10:26:25;17.32;67.07
61000;SHT31;46879;45.658;11.814;2023-02-22T10:31:32;17.32;66.72
61000;SHT31;46879;45.658;11.814;2023-02-22T10:36:32;17.33;66.68
61000;SHT31;46879;45.658;11.814;2023-02-22T10:41:37;17.33;66.74
61000;SHT31;46879;45.658;11.814;2023-02-22T10:46:41;17.32;66.74
61000;SHT31;46879;45.658;11.814;2023-02-22T10:51:42;17.33;66.62
61000;SHT31;46879;45.658;11.814;2023-02-22T10:56:48;17.34;66.59
61000;SHT31;46879;45.658;11.814;2023-02-22T11:01:49;17.34;66.55
61000;SHT31;46879;45.658;11.814;2023-02-22T11:07:12;17.36;66.80
61000;SHT31;46879;45.658;11.814;2023-02-22T11:12:28;17.37;66.51
61000;SHT31;46879;45.658;11.814;2023-02-22T11:17:31;17.37;66.53
61000;SHT31;46879;45.658;11.814;2023-02-22T11:22:41;17.33;66.63
61000;SHT31;46879;45.658;11.814;2023-02-22T11:27:43;17.34;66.52
61000;SHT31;46879;45.658;11.814;2023-02-22T11:38:24;17.39;66.36
61000;SHT31;46879;45.658;11.814;2023-02-22T11:43:25;17.39;66.61
61000;SHT31;46879;45.658;11.814;2023-02-22T11:48:29;17.37;66.27
61000;SHT31;46879;45.658;11.814;2023-02-22T12:04:31;17.37;66.60
61000;SHT31;46879;45.658;11.814;2023-02-22T12:15:22;17.33;66.52
61000;SHT31;46879;45.658;11.814;2023-02-22T12:25:46;17.32;66.54
61000;SHT31;46879;45.658;11.814;2023-02-22T12:31:20;17.33;66.85
61000;SHT31;46879;45.658;11.814;2023-02-22T12:36:29;17.32;66.62
61000;SHT31;46879;45.658;11.814;2023-02-22T12:41:46;17.33;66.73
61000;SHT31;46879;45.658;11.814;2023-02-22T12:46:52;17.34;66.56
61000;SHT31;46879;45.658;11.814;2023-02-22T12:52:08;17.32;66.62
61000;SHT31;46879;45.658;11.814;2023-02-22T13:08:21;17.32;66.75
61000;SHT31;46879;45.658;11.814;2023-02-22T13:19:10;17.30;66.80
61000;SHT31;46879;45.658;11.814;2023-02-22T13:24:56;17.27;66.88
61000;SHT31;46879;45.658;11.814;2023-02-22T13:29:59;17.32;66.57
61000;SHT31;46879;45.658;11.814;2023-02-22T13:56:23;17.29;66.32
61000;SHT31;46879;45.658;11.814;2023-02-22T14:01:39;17.29;66.45
61000;SHT31;46879;45.658;11.814;2023-02-22T14:06:40;17.27;66.22
61000;SHT31;46879;45.658;11.814;2023-02-22T14:11:47;17.29;66.24
61000;SHT31;46879;45.658;11.814;2023-02-22T14:17:24;17.27;66.47
61000;SHT31;46879;45.658;11.814;2023-02-22T14:22:27;17.27;66.20
61000;SHT31;46879;45.658;11.814;2023-02-22T14:27:39;17.27;66.29
61000;SHT31;46879;45.658;11.814;2023-02-22T14:32:40;17.25;66.24
61000;SHT31;46879;45.658;11.814;2023-02-22T14:37:42;17.23;66.26
61000;SHT31;46879;45.658;11.814;2023-02-22T14:42:48;17.23;66.74
61000;SHT31;46879;45.658;11.814;2023-02-22T15:03:48;17.25;67.52
61000;SHT31;46879;45.658;11.814;2023-02-22T15:09:29;17.27;67.40
61000;SHT31;46879;45.658;11.814;2023-02-22T15:14:35;17.29;67.72
61000;SHT31;46879;45.658;11.814;2023-02-22T15:19:41;17.25;67.78
61000;SHT31;46879;45.658;11.814;2023-02-22T15:24:41;17.25;67.71
61000;SHT31;46879;45.658;11.814;2023-02-22T15:29:43;17.25;67.84
61000;SHT31;46879;45.658;11.814;2023-02-22T15:34:44;17.27;67.87
61000;SHT31;46879;45.658;11.814;2023-02-22T15:39:44;17.26;67.84
61000;SHT31;46879;45.658;11.814;2023-02-22T15:44:48;17.26;67.84
61000;SHT31;46879;45.658;11.814;2023-02-22T15:50:22;17.26;67.78
61000;SHT31;46879;45.658;11.814;2023-02-22T15:55:42;17.27;67.87
61000;SHT31;46879;45.658;11.814;2023-02-22T16:05:59;17.25;67.88
61000;SHT31;46879;45.658;11.814;2023-02-22T16:11:08;17.25;67.93
61000;SHT31;46879;45.658;11.814;2023-02-22T16:21:20;17.23;67.78
61000;SHT31;46879;45.658;11.814;2023-02-22T16:26:33;17.25;67.70
61000;SHT31;46879;45.658;11.814;2023-02-22T16:31:38;17.25;67.65
61000;SHT31;46879;45.658;11.814;2023-02-22T16:36:41;17.23;67.59
61000;SHT31;46879;45.658;11.814;2023-02-22T16:41:41;17.23;67.59
61000;SHT31;46879;45.658;11.814;2023-02-22T16:46:42;17.25;67.55
61000;SHT31;46879;45.658;11.814;2023-02-22T16:52:00;17.22;67.53
61000;SHT31;46879;45.658;11.814;2023-02-22T16:57:03;17.20;67.61
61000;SHT31;46879;45.658;11.814;2023-02-22T17:02:04;17.23;67.64
61000;SHT31;46879;45.658;11.814;2023-02-22T17:07:06;17.25;67.66
61000;SHT31;46879;45.658;11.814;2023-02-22T17:12:08;17.25;67.67
61000;SHT31;46879;45.658;11.814;2023-02-22T17:17:11;17.22;67.68
61000;SHT31;46879;45.658;11.814;2023-02-22T17:22:20;17.23;67.74
61000;SHT31;46879;45.658;11.814;2023-02-22T17:27:21;17.25;67.78
61000;SHT31;46879;45.658;11.814;2023-02-22T17:32:22;17.22;67.84
61000;SHT31;46879;45.658;11.814;2023-02-22T17:37:22;17.23;67.88
61000;SHT31;46879;45.658;11.814;2023-02-22T17:42:24;17.22;67.93
61000;SHT31;46879;45.658;11.814;2023-02-22T17:47:25;17.20;67.91
61000;SHT31;46879;45.658;11.814;2023-02-22T17:52:26;17.20;67.93
61000;SHT31;46879;45.658;11.814;2023-02-22T17:57:29;17.23;68.01
61000;SHT31;46879;45.658;11.814;2023-02-22T18:02:30;17.23;67.97
61000;SHT31;46879;45.658;11.814;2023-02-22T18:07:33;17.22;67.94
61000;SHT31;46879;45.658;11.814;2023-02-22T18:12:34;17.20;67.87
61000;SHT31;46879;45.658;11.814;2023-02-22T18:17:36;17.23;68.10
61000;SHT31;46879;45.658;11.814;2023-02-22T18:22:38;17.23;68.02
61000;SHT31;46879;45.658;11.814;2023-02-22T18:27:42;17.25;67.93
61000;SHT31;46879;45.658;11.814;2023-02-22T18:32:42;17.25;67.87
61000;SHT31;46879;45.658;11.814;2023-02-22T18:37:45;17.25;67.91
61000;SHT31;46879;45.658;11.814;2023-02-22T18:42:46;17.27;67.86
61000;SHT31;46879;45.658;11.814;2023-02-22T18:47:47;17.26;67.90
61000;SHT31;46879;45.658;11.814;2023-02-22T18:52:47;17.25;67.84
61000;SHT31;46879;45.658;11.814;2023-02-22T18:57:48;17.26;67.86
61000;SHT31;46879;45.658;11.814;2023-02-22T19:02:52;17.27;67.88
61000;SHT31;46879;45.658;11.814;2023-02-22T19:07:52;17.26;67.92
61000;SHT31;46879;45.658;11.814;2023-02-22T19:12:53;17.26;67.87
61000;SHT31;46879;45.658;11.814;2023-02-22T19:17:54;17.25;67.88
61000;SHT31;46879;45.658;11.814;2023-02-22T19:22:54;17.27;67.93
61000;SHT31;46879;45.658;11.814;2023-02-22T19:27:55;17.26;67.90
61000;SHT31;46879;45.658;11.814;2023-02-22T19:32:59;17.26;67.92
61000;SHT31;46879;45.658;11.814;2023-02-22T19:38:02;17.26;68.02
61000;SHT31;46879;45.658;11.814;2023-02-22T19:43:02;17.27;67.99
61000;SHT31;46879;45.658;11.814;2023-02-22T19:48:03;17.26;67.99
61000;SHT31;46879;45.658;11.814;2023-02-22T19:53:04;17.26;68.01
61000;SHT31;46879;45.658;11.814;2023-02-22T19:58:05;17.26;67.99
61000;SHT31;46879;45.658;11.814;2023-02-22T20:03:05;17.25;68.04
61000;SHT31;46879;45.658;11.814;2023-02-22T20:08:08;17.25;68.02
61000;SHT31;46879;45.658;11.814;2023-02-22T20:13:08;17.26;68.05
61000;SHT31;46879;45.658;11.814;2023-02-22T20:18:11;17.26;68.02
61000;SHT31;46879;45.658;11.814;2023-02-22T20:23:11;17.25;68.04
61000;SHT31;46879;45.658;11.814;2023-02-22T20:28:12;17.26;67.97
61000;SHT31;46879;45.658;11.814;2023-02-22T20:33:13;17.25;67.97
61000;SHT31;46879;45.658;11.814;2023-02-22T20:38:13;17.26;67.89
61000;SHT31;46879;45.658;11.814;2023-02-22T20:43:14;17.27;67.91
61000;SHT31;46879;45.658;11.814;2023-02-22T20:48:15;17.25;67.94
61000;SHT31;46879;45.658;11.814;2023-02-22T20:53:15;17.26;67.99
61000;SHT31;46879;45.658;11.814;2023-02-22T20:58:16;17.25;67.98
61000;SHT31;46879;45.658;11.814;2023-02-22T21:03:20;17.25;67.97
61000;SHT31;46879;45.658;11.814;2023-02-22T21:08:21;17.25;67.99
61000;SHT31;46879;45.658;11.814;2023-02-22T21:13:21;17.26;67.98
61000;SHT31;46879;45.658;11.814;2023-02-22T21:18:22;17.25;67.92
61000;SHT31;46879;45.658;11.814;2023-02-22T21:23:23;17.27;70.88
61000;SHT31;46879;45.658;11.814;2023-02-22T21:28:23;17.29;71.51
61000;SHT31;46879;45.658;11.814;2023-02-22T21:33:24;17.25;71.49
61000;SHT31;46879;45.658;11.814;2023-02-22T21:38:25;17.26;70.93
61000;SHT31;46879;45.658;11.814;2023-02-22T21:43:25;17.26;71.26
61000;SHT31;46879;45.658;11.814;2023-02-22T21:48:26;17.27;70.98
61000;SHT31;46879;45.658;11.814;2023-02-22T21:53:27;17.26;71.37
61000;SHT31;46879;45.658;11.814;2023-02-22T21:58:28;17.26;71.39
61000;SHT31;46879;45.658;11.814;2023-02-22T22:03:30;17.25;71.34
61000;SHT31;46879;45.658;11.814;2023-02-22T22:08:30;17.26;71.45
61000;SHT31;46879;45.658;11.814;2023-02-22T22:13:31;17.26;71.42
61000;SHT31;46879;45.658;11.814;2023-02-22T22:18:33;17.26;71.60
61000;SHT31;46879;45.658;11.814;2023-02-22T22:23:37;17.25;71.70
61000;SHT31;46879;45.658;11.814;2023-02-22T22:28:40;17.27;71.67
61000;SHT31;46879;45.658;11.814;2023-02-22T22:33:42;17.26;71.78
61000;SHT31;46879;45.658;11.814;2023-02-22T22:38:43;17.27;71.39
61000;SHT31;46879;45.658;11.814;2023-02-22T22:43:46;17.27;71.62
61000;SHT31;46879;45.658;11.814;2023-02-22T22:48:53;17.30;71.64
61000;SHT31;46879;45.658;11.814;2023-02-22T22:53:57;17.29;71.78
61000;SHT31;46879;45.658;11.814;2023-02-22T22:58:58;17.27;71.78
61000;SHT31;46879;45.658;11.814;2023-02-22T23:04:02;17.26;72.09
61000;SHT31;46879;45.658;11.814;2023-02-22T23:09:06;17.33;71.88
61000;SHT31;46879;45.658;11.814;2023-02-22T23:14:14;17.32;71.91
61000;SHT31;46879;45.658;11.814;2023-02-22T23:19:15;17.30;71.90
61000;SHT31;46879;45.658;11.814;2023-02-22T23:24:18;17.27;72.00
61000;SHT31;46879;45.658;11.814;2023-02-22T23:29:21;17.29;72.12
61000;SHT31;46879;45.658;11.814;2023-02-22T23:34:22;17.27;72.08
61000;SHT31;46879;45.658;11.814;2023-02-22T23:39:23;17.30;72.03
61000;SHT31;46879;45.658;11.814;2023-02-22T23:44:25;17.29;72.03
61000;SHT31;46879;45.658;11.814;2023-02-22T23:49:27;17.30;71.97
61000;SHT31;46879;45.658;11.814;2023-02-22T23:54:38;17.29;71.96
61000;SHT31;46879;45.658;11.814;2023-02-22T23:59:42;17.32;72.02
